createdAt,value
2023-02-13T00:00:36.549Z,68.07
2023-02-13T00:03:11.486Z,67.83
2023-02-13T00:05:39.116Z,70.87
2023-02-13T00:08:13.458Z,72.17
2023-02-13T00:10:48.540Z,76.37
2023-02-13T00:13:22.517Z,65.93
2023-02-13T00:16:15.537Z,79.27
2023-02-13T00:18:49.564Z,81.83
2023-02-13T00:21:17.103Z,80.40
2023-02-13T00:23:51.602Z,75.73
2023-02-13T00:26:26.456Z,84.53
2023-02-13T00:29:00.447Z,67.07
2023-02-13T00:31:34.500Z,68.07
2023-02-13T00:34:02.171Z,69.60
2023-02-13T00:36:29.857Z,82.77
2023-02-13T00:39:04.509Z,68.60
2023-02-13T00:41:32.317Z,80.87
2023-02-13T00:44:06.593Z,82.53
2023-02-13T00:46:41.538Z,71.20
2023-02-13T00:49:15.921Z,65.37
2023-02-13T00:51:50.440Z,83.53
2023-02-13T00:54:17.893Z,78.63
2023-02-13T00:56:45.479Z,83.80
2023-02-13T00:59:19.524Z,82.87
2023-02-13T01:01:56.500Z,77.33
2023-02-13T01:04:24.230Z,77.97
2023-02-13T01:06:58.482Z,70.90
2023-02-13T01:09:27.204Z,67.23
2023-02-13T01:12:01.439Z,63.93
2023-02-13T01:14:29.059Z,55.93
2023-02-13T01:17:09.517Z,65.27
2023-02-13T01:19:43.543Z,74.00
2023-02-13T01:22:11.246Z,79.13
2023-02-13T01:24:45.480Z,63.23
2023-02-13T01:27:19.531Z,69.77
2023-02-13T01:29:47.030Z,76.57
2023-02-13T01:32:21.440Z,82.43
2023-02-13T01:34:55.589Z,73.73
2023-02-13T01:37:29.505Z,61.93
2023-02-13T01:39:57.025Z,72.13
2023-02-13T01:42:41.467Z,69.77
2023-02-13T01:45:36.533Z,64.77
2023-02-13T01:48:24.462Z,66.70
2023-02-13T01:51:19.961Z,59.33
2023-02-13T01:54:02.450Z,59.07
2023-02-13T01:56:48.599Z,62.50
2023-02-13T01:59:30.537Z,55.30
2023-02-13T02:02:06.549Z,63.27
2023-02-13T02:04:49.450Z,70.90
2023-02-13T02:07:32.419Z,63.17
2023-02-13T02:10:08.439Z,63.57
2023-02-13T02:12:50.422Z,61.33
2023-02-13T02:15:19.776Z,54.63
2023-02-13T02:17:53.432Z,46.17
2023-02-13T02:21:04.409Z,47.77
2023-02-13T02:23:56.403Z,48.53
2023-02-13T02:27:12.443Z,54.87
2023-02-13T02:30:24.482Z,45.33
2023-02-13T02:33:25.078Z,38.43
2023-02-13T02:36:28.438Z,41.07
2023-02-13T02:39:26.421Z,32.67
2023-02-13T02:42:12.652Z,31.63
2023-02-13T02:45:09.442Z,29.10
2023-02-13T02:48:33.417Z,32.27
2023-02-13T02:51:14.449Z,31.23
2023-02-13T02:54:10.436Z,30.60
2023-02-13T02:56:49.446Z,34.27
2023-02-13T02:59:39.289Z,30.17
2023-02-13T03:02:33.444Z,31.53
2023-02-13T03:05:28.350Z,28.90
2023-02-13T03:08:02.463Z,42.47
2023-02-13T03:10:59.839Z,27.23
2023-02-13T03:13:46.416Z,26.97
2023-02-13T03:16:39.262Z,28.33
2023-02-13T03:19:38.448Z,23.27
2023-02-13T03:22:39.418Z,24.50
2023-02-13T03:25:34.404Z,29.80
2023-02-13T03:28:52.422Z,24.73
2023-02-13T03:31:33.824Z,20.27
2023-02-13T03:34:23.428Z,19.67
2023-02-13T03:37:28.470Z,20.37
2023-02-13T03:40:08.440Z,18.83
2023-02-13T03:43:04.715Z,21.17
2023-02-13T03:46:03.410Z,22.40
2023-02-13T03:48:53.872Z,18.83
2023-02-13T03:51:41.397Z,19.43
2023-02-13T03:54:23.697Z,21.83
2023-02-13T03:57:17.444Z,22.13
2023-02-13T03:59:51.394Z,21.47
2023-02-13T04:02:37.588Z,17.77
2023-02-13T04:05:22.445Z,18.30
2023-02-13T04:07:57.468Z,20.73
2023-02-13T04:10:27.943Z,20.63
2023-02-13T04:13:17.409Z,19.03
2023-02-13T04:15:57.406Z,22.23
2023-02-13T04:18:29.937Z,18.40
2023-02-13T04:21:03.421Z,19.93
2023-02-13T04:23:31.021Z,19.60
2023-02-13T04:26:06.425Z,19.87
2023-02-13T04:28:40.500Z,17.53
2023-02-13T04:31:14.506Z,18.73
2023-02-13T04:33:42.176Z,20.87
2023-02-13T04:36:17.423Z,19.00
2023-02-13T04:38:45.684Z,14.13
2023-02-13T04:41:13.228Z,16.83
2023-02-13T04:43:48.440Z,19.57
2023-02-13T04:46:16.027Z,19.10
2023-02-13T04:48:49.430Z,21.83
2023-02-13T04:51:16.872Z,19.33
2023-02-13T04:53:50.475Z,19.03
2023-02-13T04:56:19.831Z,16.67
2023-02-13T04:58:53.457Z,21.23
2023-02-13T05:01:21.025Z,14.37
2023-02-13T05:04:02.432Z,20.97
2023-02-13T05:06:36.420Z,17.00
2023-02-13T05:09:10.433Z,20.23
2023-02-13T05:11:44.460Z,19.50
2023-02-13T05:14:18.457Z,17.67
2023-02-13T05:16:52.451Z,16.27
2023-02-13T05:19:19.828Z,19.20
2023-02-13T05:22:29.473Z,20.43
2023-02-13T05:24:56.940Z,19.00
2023-02-13T05:27:30.453Z,16.43
2023-02-13T05:29:57.977Z,23.13
2023-02-13T05:32:31.465Z,18.53
2023-02-13T05:34:58.880Z,18.77
2023-02-13T05:37:32.452Z,17.87
2023-02-13T05:40:06.450Z,20.10
2023-02-13T05:42:40.464Z,16.53
2023-02-13T05:45:15.474Z,18.97
2023-02-13T05:47:49.453Z,17.73
2023-02-13T05:50:17.082Z,19.50
2023-02-13T05:53:10.501Z,15.80
2023-02-13T05:55:39.885Z,19.50
2023-02-13T05:58:16.456Z,18.13
2023-02-13T06:00:44.035Z,20.83
2023-02-13T06:03:18.477Z,18.83
2023-02-13T06:05:45.928Z,20.40
2023-02-13T06:08:20.501Z,20.47
2023-02-13T06:10:48.689Z,18.03
2023-02-13T06:15:53.075Z,20.87
2023-02-13T06:18:27.052Z,22.33
2023-02-13T06:20:54.647Z,16.73
2023-02-13T06:23:29.085Z,20.50
2023-02-13T06:26:03.023Z,19.90
2023-02-13T06:28:37.066Z,20.27
2023-02-13T06:31:11.171Z,19.87
2023-02-13T06:33:38.655Z,17.20
2023-02-13T06:36:13.074Z,22.73
2023-02-13T06:38:40.541Z,19.47
2023-02-13T06:41:15.076Z,22.60
2023-02-13T06:43:42.561Z,23.17
2023-02-13T06:46:17.175Z,22.80
2023-02-13T06:48:44.696Z,20.20
2023-02-13T06:51:19.154Z,24.70
2023-02-13T06:53:54.103Z,19.23
2023-02-13T06:56:28.161Z,23.73
2023-02-13T06:59:02.349Z,20.30
2023-02-13T07:01:37.265Z,19.43
2023-02-13T07:04:04.970Z,24.63
2023-02-13T07:06:39.108Z,18.33
2023-02-13T07:09:13.283Z,18.13
2023-02-13T07:11:48.220Z,20.87
2023-02-13T07:14:36.139Z,18.50
2023-02-13T07:17:10.317Z,17.80
2023-02-13T07:19:37.949Z,16.87
2023-02-13T07:22:12.148Z,16.70
2023-02-13T07:24:39.863Z,14.70
2023-02-13T07:27:14.219Z,14.03
2023-02-13T07:29:42.073Z,15.07
2023-02-13T07:32:17.154Z,13.53
2023-02-13T07:35:00.577Z,11.77
2023-02-13T07:37:38.313Z,9.77
2023-02-13T07:40:06.858Z,12.90
2023-02-13T07:42:35.142Z,11.67
2023-02-13T07:45:12.221Z,11.53
2023-02-13T07:47:39.789Z,11.30
2023-02-13T07:50:15.275Z,8.90
2023-02-13T07:52:42.917Z,9.37
2023-02-13T07:55:18.121Z,8.67
2023-02-13T07:57:52.142Z,8.40
2023-02-13T08:00:27.153Z,7.53
2023-02-13T08:02:55.165Z,6.50
2023-02-13T08:05:29.432Z,5.27
2023-02-13T08:08:04.135Z,6.13
2023-02-13T08:10:57.142Z,5.70
2023-02-13T08:13:46.421Z,6.20
2023-02-13T08:16:20.270Z,6.07
2023-02-13T08:18:54.165Z,4.90
2023-02-13T08:21:22.048Z,6.13
2023-02-13T08:23:58.272Z,5.20
2023-02-13T08:26:26.047Z,5.13
2023-02-13T08:29:00.152Z,5.60
2023-02-13T08:31:34.327Z,5.60
2023-02-13T08:34:09.152Z,6.00
2023-02-13T08:36:37.004Z,6.00
2023-02-13T08:39:12.241Z,6.30
2023-02-13T08:41:46.265Z,4.90
2023-02-13T08:44:20.313Z,6.30
2023-02-13T08:46:48.160Z,5.57
2023-02-13T08:49:22.219Z,7.53
2023-02-13T08:51:57.145Z,9.95
2023-02-13T08:54:31.142Z,5.32
2023-02-13T08:56:58.888Z,4.53
2023-02-13T08:59:33.188Z,4.63
2023-02-13T09:02:07.222Z,6.03
2023-02-13T09:04:35.561Z,3.88
2023-02-13T09:07:10.146Z,4.18
2023-02-13T09:09:37.896Z,6.35
2023-02-13T09:12:12.293Z,5.43
2023-02-13T09:14:54.194Z,4.95
2023-02-13T09:17:22.556Z,4.13
2023-02-13T09:22:40.336Z,4.40
2023-02-13T09:25:15.371Z,6.30
2023-02-13T09:27:43.115Z,4.50
2023-02-13T09:30:18.347Z,6.80
2023-02-13T09:32:47.262Z,4.60
2023-02-13T09:35:21.335Z,5.72
2023-02-13T09:37:55.360Z,4.47
2023-02-13T09:40:39.455Z,4.57
2023-02-13T09:43:20.373Z,4.63
2023-02-13T09:45:56.817Z,5.85
2023-02-13T09:48:38.428Z,5.00
2023-02-13T09:51:13.391Z,5.20
2023-02-13T09:53:43.559Z,4.95
2023-02-13T09:56:22.392Z,6.95
2023-02-13T09:58:59.010Z,6.50
2023-02-13T10:01:50.404Z,5.05
2023-02-13T10:04:17.936Z,6.47
2023-02-13T10:06:56.390Z,5.50
2023-02-13T10:09:33.415Z,5.40
2023-02-13T10:12:32.373Z,6.40
2023-02-13T10:15:21.553Z,6.65
2023-02-13T10:18:08.382Z,5.50
2023-02-13T10:21:10.435Z,5.05
2023-02-13T10:24:04.327Z,6.25
2023-02-13T10:26:52.367Z,6.22
2023-02-13T10:30:09.419Z,6.63
2023-02-13T10:32:47.343Z,5.65
2023-02-13T10:35:37.376Z,4.80
2023-02-13T10:38:22.332Z,4.47
2023-02-13T10:41:31.404Z,4.55
2023-02-13T10:44:36.351Z,5.25
2023-02-13T10:47:33.355Z,4.97
2023-02-13T10:50:16.311Z,3.40
2023-02-13T10:53:11.369Z,5.97
2023-02-13T10:56:06.352Z,3.97
2023-02-13T10:59:31.407Z,4.30
2023-02-13T11:02:24.023Z,4.85
2023-02-13T11:05:31.362Z,5.10
2023-02-13T11:08:00.374Z,5.07
2023-02-13T11:10:34.373Z,5.03
2023-02-13T11:13:20.236Z,4.90
2023-02-13T11:16:05.469Z,4.72
2023-02-13T11:18:46.378Z,5.25
2023-02-13T11:21:30.403Z,4.90
2023-02-13T11:24:04.946Z,4.78
2023-02-13T11:26:42.394Z,5.80
2023-02-13T11:30:03.363Z,4.90
2023-02-13T11:32:35.095Z,4.90
2023-02-13T11:35:34.612Z,6.25
2023-02-13T11:38:18.229Z,4.60
2023-02-13T11:40:55.626Z,5.38
2023-02-13T11:43:37.658Z,3.88
2023-02-13T11:46:18.476Z,5.40
2023-02-13T11:49:03.745Z,6.53
2023-02-13T11:51:39.466Z,5.53
2023-02-13T11:54:28.693Z,5.70
2023-02-13T11:57:06.633Z,4.65
2023-02-13T11:59:42.968Z,4.60
2023-02-13T12:02:36.417Z,4.57
2023-02-13T12:05:16.024Z,6.57
2023-02-13T12:07:51.675Z,5.22
2023-02-13T12:10:27.529Z,4.80
2023-02-13T12:13:39.680Z,5.07
2023-02-13T12:16:26.928Z,6.28
2023-02-13T12:19:05.653Z,5.85
2023-02-13T12:22:16.832Z,5.50
2023-02-13T12:25:11.714Z,4.68
2023-02-13T12:28:14.146Z,4.53
2023-02-13T12:31:03.386Z,5.30
2023-02-13T12:34:04.700Z,4.90
2023-02-13T12:36:42.764Z,6.13
2023-02-13T12:39:37.713Z,5.47
2023-02-13T12:42:57.745Z,6.57
2023-02-13T12:45:41.191Z,6.00
2023-02-13T12:48:31.726Z,8.20
2023-02-13T12:51:32.730Z,5.45
2023-02-13T12:54:18.613Z,7.30
2023-02-13T12:57:18.743Z,6.28
2023-02-13T13:00:07.705Z,7.22
2023-02-13T13:03:07.712Z,5.93
2023-02-13T13:06:10.909Z,6.05
2023-02-13T13:08:52.708Z,6.88
2023-02-13T13:11:43.074Z,7.22
2023-02-13T13:14:28.742Z,6.45
2023-02-13T13:17:08.978Z,7.57
2023-02-13T13:19:49.730Z,7.20
2023-02-13T13:22:59.704Z,6.95
2023-02-13T13:25:53.797Z,6.72
2023-02-13T13:28:35.752Z,7.35
2023-02-13T13:31:04.412Z,6.95
2023-02-13T13:33:39.790Z,6.20
2023-02-13T13:36:26.738Z,6.00
2023-02-13T13:39:06.625Z,5.95
2023-02-13T13:42:01.761Z,12.35
2023-02-13T13:44:35.010Z,6.57
2023-02-13T13:47:35.769Z,6.28
2023-02-13T13:50:13.712Z,7.32
2023-02-13T13:53:07.801Z,7.20
2023-02-13T13:55:50.216Z,8.30
2023-02-13T13:58:38.717Z,6.03
2023-02-13T14:01:25.849Z,6.50
2023-02-13T14:04:02.704Z,7.35
2023-02-13T14:06:56.750Z,7.93
2023-02-13T14:09:33.779Z,7.03
2023-02-13T14:12:24.153Z,7.20
2023-02-13T14:15:02.775Z,7.22
2023-02-13T14:17:45.526Z,5.97
2023-02-13T14:20:46.733Z,6.00
2023-02-13T14:23:59.724Z,5.55
2023-02-13T14:26:45.950Z,5.63
2023-02-13T14:29:28.595Z,5.68
2023-02-13T14:32:13.826Z,6.35
2023-02-13T14:34:42.156Z,6.88
2023-02-13T14:37:26.781Z,7.00
2023-02-13T14:40:17.829Z,5.90
2023-02-13T14:42:53.758Z,6.45
2023-02-13T14:45:27.403Z,6.45
2023-02-13T14:48:03.748Z,8.60
2023-02-13T14:50:56.227Z,8.10
2023-02-13T14:53:45.786Z,10.05
2023-02-13T14:56:25.739Z,6.38
2023-02-13T14:59:33.116Z,6.68
2023-02-13T15:02:22.756Z,7.72
2023-02-13T15:04:59.907Z,6.63
2023-02-13T15:07:37.730Z,7.45
2023-02-13T15:10:40.371Z,8.32
2023-02-13T15:13:39.766Z,7.78
2023-02-13T15:16:19.941Z,7.28
2023-02-13T15:18:52.572Z,11.23
2023-02-13T15:21:28.767Z,10.25
2023-02-13T15:24:05.766Z,8.98
2023-02-13T15:26:33.992Z,6.93
2023-02-13T15:29:14.099Z,8.13
2023-02-13T15:31:45.019Z,7.57
2023-02-13T15:34:42.770Z,7.78
2023-02-13T15:37:24.491Z,7.25
2023-02-13T15:39:58.733Z,9.75
2023-02-13T15:42:32.816Z,8.90
2023-02-13T15:45:07.790Z,7.78
2023-02-13T15:47:36.551Z,7.82
2023-02-13T15:50:10.795Z,8.05
2023-02-13T15:52:46.792Z,8.80
2023-02-13T15:55:29.657Z,11.30
2023-02-13T15:58:06.795Z,11.47
2023-02-13T16:00:37.458Z,14.23
2023-02-13T16:03:13.811Z,9.67
2023-02-13T16:05:41.829Z,11.33
2023-02-13T16:08:32.771Z,11.57
2023-02-13T16:11:18.768Z,12.20
2023-02-13T16:14:07.755Z,12.10
2023-02-13T16:17:05.771Z,14.63
2023-02-13T16:19:38.351Z,11.43
2023-02-13T16:22:35.782Z,13.27
2023-02-13T16:25:41.746Z,11.63
2023-02-13T16:28:21.116Z,10.73
2023-02-13T16:31:09.873Z,12.77
2023-02-13T16:33:44.023Z,14.00
2023-02-13T16:36:17.793Z,11.27
2023-02-13T16:38:49.913Z,13.80
2023-02-13T16:41:23.776Z,12.07
2023-02-13T16:43:59.806Z,11.70
2023-02-13T16:46:59.808Z,12.10
2023-02-13T16:49:35.886Z,15.50
2023-02-13T16:52:23.304Z,12.30
2023-02-13T16:55:04.769Z,12.53
2023-02-13T16:57:41.838Z,13.03
2023-02-13T17:00:25.558Z,11.63
2023-02-13T17:03:02.857Z,12.77
2023-02-13T17:05:36.769Z,13.07
2023-02-13T17:08:04.328Z,13.57
2023-02-13T17:10:46.793Z,14.30
2023-02-13T17:13:26.855Z,13.60
2023-02-13T17:15:55.297Z,12.93
2023-02-13T17:18:29.800Z,14.23
2023-02-13T17:21:17.782Z,13.80
2023-02-13T17:23:51.788Z,13.67
2023-02-13T17:26:19.208Z,15.33
2023-02-13T17:28:52.807Z,15.53
2023-02-13T17:31:20.294Z,17.47
2023-02-13T17:33:53.833Z,15.23
2023-02-13T17:36:22.087Z,14.07
2023-02-13T17:38:56.804Z,14.83
2023-02-13T17:41:30.944Z,18.77
2023-02-13T17:43:58.436Z,15.03
2023-02-13T17:46:32.050Z,16.77
2023-02-13T17:48:59.664Z,22.60
2023-02-13T17:51:33.807Z,17.50
2023-02-13T17:54:01.206Z,14.87
2023-02-13T17:56:34.903Z,15.30
2023-02-13T17:59:02.332Z,16.30
2023-02-13T18:01:35.918Z,17.33
2023-02-13T18:04:09.942Z,18.93
2023-02-13T18:06:37.318Z,16.80
2023-02-13T18:09:10.790Z,23.23
2023-02-13T18:11:38.193Z,19.47
2023-02-13T18:14:11.860Z,18.93
2023-02-13T18:16:39.531Z,17.47
2023-02-13T18:19:13.946Z,17.50
2023-02-13T18:21:54.876Z,16.63
2023-02-13T18:24:22.519Z,19.00
2023-02-13T18:26:57.803Z,18.57
2023-02-13T18:29:25.732Z,20.37
2023-02-13T18:31:59.904Z,19.27
2023-02-13T18:34:27.630Z,20.40
2023-02-13T18:37:01.942Z,21.77
2023-02-13T18:39:29.379Z,18.97
2023-02-13T18:42:02.819Z,17.80
2023-02-13T18:44:36.799Z,18.07
2023-02-13T18:47:04.290Z,16.00
2023-02-13T18:49:37.867Z,29.47
2023-02-13T18:52:12.818Z,44.40
2023-02-13T18:54:46.836Z,23.60
2023-02-13T18:57:14.268Z,23.60
2023-02-13T18:59:47.838Z,17.97
2023-02-13T19:02:24.878Z,16.77
2023-02-13T19:04:52.324Z,18.40
2023-02-13T19:07:26.832Z,22.20
2023-02-13T19:09:54.268Z,19.67
2023-02-13T19:12:27.873Z,19.23
2023-02-13T19:14:56.242Z,20.33
2023-02-13T19:17:29.876Z,21.20
2023-02-13T19:20:04.835Z,19.77
2023-02-13T19:22:38.813Z,23.33
2023-02-13T19:25:19.837Z,18.63
2023-02-13T19:27:53.844Z,17.77
2023-02-13T19:30:23.590Z,20.97
2023-02-13T19:32:57.828Z,20.93
2023-02-13T19:35:31.899Z,25.47
2023-02-13T19:38:00.636Z,18.13
2023-02-13T19:40:36.969Z,20.63
2023-02-13T19:43:04.395Z,22.50
2023-02-13T19:45:39.843Z,25.27
2023-02-13T19:48:13.853Z,20.03
2023-02-13T19:50:42.963Z,23.80
2023-02-13T19:53:16.924Z,24.87
2023-02-13T19:55:47.564Z,21.73
2023-02-13T19:58:15.141Z,25.60
2023-02-13T20:00:48.917Z,23.47
2023-02-13T20:03:23.889Z,23.93
2023-02-13T20:05:58.880Z,22.87
2023-02-13T20:08:35.071Z,22.87
2023-02-13T20:11:09.055Z,23.70
2023-02-13T20:13:43.048Z,23.87
2023-02-13T20:16:14.896Z,26.43
2023-02-13T20:18:51.093Z,26.37
2023-02-13T20:21:39.007Z,24.07
2023-02-13T20:24:13.115Z,23.97
2023-02-13T20:26:48.026Z,34.87
2023-02-13T20:29:17.302Z,54.27
2023-02-13T20:31:51.210Z,36.10
2023-02-13T20:34:19.545Z,97.67
2023-02-13T20:36:54.053Z,24.03
2023-02-13T20:39:21.593Z,25.57
2023-02-13T20:41:57.020Z,32.27
2023-02-13T20:44:25.076Z,21.00
2023-02-13T20:47:00.225Z,19.07
2023-02-13T20:49:28.344Z,23.10
2023-02-13T20:52:02.129Z,22.80
2023-02-13T20:54:36.120Z,21.83
2023-02-13T20:57:05.512Z,20.07
2023-02-13T20:59:39.117Z,14.47
2023-02-13T21:02:07.623Z,15.70
2023-02-13T21:04:42.139Z,17.50
2023-02-13T21:07:09.669Z,17.10
2023-02-13T21:09:44.133Z,15.33
2023-02-13T21:12:11.689Z,13.30
2023-02-13T21:14:47.085Z,13.23
2023-02-13T21:17:14.543Z,13.10
2023-02-13T21:19:49.031Z,12.33
2023-02-13T21:22:33.214Z,11.20
2023-02-13T21:25:07.216Z,12.53
2023-02-13T21:27:41.064Z,11.03
2023-02-13T21:30:09.736Z,10.83
2023-02-13T21:32:46.050Z,14.27
2023-02-13T21:35:20.110Z,10.87
2023-02-13T21:37:47.545Z,10.03
2023-02-13T21:40:24.508Z,9.87
2023-02-13T21:43:01.076Z,10.40
2023-02-13T21:45:35.079Z,9.97
2023-02-13T21:48:02.859Z,9.03
2023-02-13T21:50:38.462Z,11.60
2023-02-13T21:53:06.040Z,8.90
2023-02-13T21:55:40.041Z,7.70
2023-02-13T21:58:14.024Z,8.40
2023-02-13T22:00:41.429Z,9.73
2023-02-13T22:03:15.022Z,7.17
2023-02-13T22:05:55.091Z,7.70
2023-02-13T22:08:30.065Z,6.67
2023-02-13T22:11:07.039Z,5.73
2023-02-13T22:13:35.382Z,5.90
2023-02-13T22:16:17.155Z,6.43
2023-02-13T22:18:53.034Z,5.47
2023-02-13T22:21:30.089Z,5.70
2023-02-13T22:24:04.699Z,4.63
2023-02-13T22:26:44.131Z,6.57
2023-02-13T22:29:15.024Z,6.07
2023-02-13T22:31:51.743Z,3.97
2023-02-13T22:34:27.095Z,3.50
2023-02-13T22:37:02.068Z,4.23
2023-02-13T22:39:29.530Z,5.67
2023-02-13T22:42:04.054Z,4.70
2023-02-13T22:44:31.587Z,4.57
2023-02-13T22:47:07.364Z,3.00
2023-02-13T22:49:42.111Z,5.00
2023-02-13T22:52:17.311Z,3.20
2023-02-13T22:54:51.073Z,2.77
2023-02-13T22:57:25.051Z,4.40
2023-02-13T22:59:52.445Z,3.50
2023-02-13T23:02:27.075Z,2.60
2023-02-13T23:04:54.495Z,4.03
2023-02-13T23:07:28.023Z,4.00
2023-02-13T23:09:55.358Z,3.17
2023-02-13T23:12:45.027Z,1.63
2023-02-13T23:15:15.772Z,2.70
2023-02-13T23:18:08.018Z,1.03
2023-02-13T23:20:42.027Z,2.37
2023-02-13T23:23:24.023Z,2.00
2023-02-13T23:25:51.400Z,2.53
2023-02-13T23:28:26.058Z,2.40
2023-02-13T23:31:00.736Z,2.07
2023-02-13T23:33:35.042Z,0.70
2023-02-13T23:36:02.702Z,1.47
2023-02-13T23:38:37.041Z,1.67
2023-02-13T23:41:16.050Z,2.00
2023-02-13T23:43:50.027Z,1.37
2023-02-13T23:46:17.418Z,0.70
2023-02-13T23:48:53.037Z,2.83
2023-02-13T23:51:23.067Z,2.57
2023-02-13T23:54:00.040Z,1.20
2023-02-13T23:56:34.012Z,0.80
2023-02-13T23:59:01.373Z,1.80
